createdAt,value
2023-02-28T00:01:33.492Z,5.60
2023-02-28T00:04:05.475Z,5.55
2023-02-28T00:06:37.323Z,5.07
2023-02-28T00:09:09.209Z,6.20
2023-02-28T00:11:41.110Z,4.68
2023-02-28T00:14:12.928Z,5.68
2023-02-28T00:16:44.801Z,4.90
2023-02-28T00:19:16.828Z,6.63
2023-02-28T00:21:48.763Z,7.15
2023-02-28T00:24:20.621Z,6.05
2023-02-28T00:26:52.472Z,6.57
2023-02-28T00:29:24.449Z,5.07
2023-02-28T00:31:56.339Z,5.20
2023-02-28T00:34:28.329Z,5.68
2023-02-28T00:37:00.189Z,4.90
2023-02-28T00:39:32.058Z,4.55
2023-02-28T00:42:05.085Z,6.20
2023-02-28T00:44:37.147Z,7.57
2023-02-28T00:47:09.050Z,5.43
2023-02-28T00:49:41.137Z,6.50
2023-02-28T00:52:15.275Z,4.68
2023-02-28T00:54:47.177Z,4.43
2023-02-28T00:57:20.267Z,4.22
2023-02-28T00:59:52.261Z,5.88
2023-02-28T01:02:24.480Z,5.15
2023-02-28T01:04:58.262Z,4.07
2023-02-28T01:07:30.184Z,5.68
2023-02-28T01:10:02.096Z,4.47
2023-02-28T01:12:34.100Z,4.63
2023-02-28T01:15:06.707Z,5.03
2023-02-28T01:17:38.624Z,5.22
2023-02-28T01:20:11.286Z,4.00
2023-02-28T01:22:43.333Z,5.07
2023-02-28T01:25:15.365Z,5.72
2023-02-28T01:27:47.296Z,4.18
2023-02-28T01:30:19.246Z,5.95
2023-02-28T01:32:54.524Z,4.40
2023-02-28T01:35:26.416Z,5.32
2023-02-28T01:38:06.827Z,5.28
2023-02-28T01:40:44.350Z,4.97
2023-02-28T01:43:28.899Z,4.57
2023-02-28T01:46:00.865Z,4.55
2023-02-28T01:48:36.975Z,5.32
2023-02-28T01:51:15.552Z,4.53
2023-02-28T01:53:52.413Z,4.82
2023-02-28T01:56:29.352Z,7.38
2023-02-28T01:59:01.347Z,5.75
2023-02-28T02:01:33.687Z,4.68
2023-02-28T02:04:06.896Z,3.58
2023-02-28T02:06:43.807Z,4.05
2023-02-28T02:09:15.899Z,5.57
2023-02-28T02:11:48.194Z,5.35
2023-02-28T02:14:32.075Z,5.28
2023-02-28T02:17:22.858Z,4.70
2023-02-28T02:20:04.963Z,5.38
2023-02-28T02:23:14.411Z,4.25
2023-02-28T02:26:06.899Z,5.05
2023-02-28T02:29:07.681Z,4.47
2023-02-28T02:32:15.896Z,4.00
2023-02-28T02:34:59.568Z,5.55
2023-02-28T02:37:39.881Z,6.80
2023-02-28T02:40:20.757Z,4.13
2023-02-28T02:42:58.005Z,5.70
2023-02-28T02:45:55.657Z,3.90
2023-02-28T02:48:32.929Z,5.13
2023-02-28T02:51:14.018Z,4.53
2023-02-28T02:53:52.479Z,6.13
2023-02-28T02:56:30.024Z,4.68
2023-02-28T02:59:05.053Z,5.20
2023-02-28T03:01:38.893Z,4.18
2023-02-28T03:04:17.142Z,3.90
2023-02-28T03:06:51.124Z,4.55
2023-02-28T03:09:23.920Z,4.50
2023-02-28T03:11:57.753Z,4.85
2023-02-28T03:14:47.809Z,4.72
2023-02-28T03:17:25.657Z,6.85
2023-02-28T03:20:18.101Z,4.22
2023-02-28T03:23:10.917Z,6.03
2023-02-28T03:25:46.153Z,4.85
2023-02-28T03:28:29.324Z,3.83
2023-02-28T03:31:31.580Z,5.38
2023-02-28T03:34:15.410Z,4.85
2023-02-28T03:36:54.741Z,5.57
2023-02-28T03:39:37.750Z,4.60
2023-02-28T03:42:17.247Z,4.70
2023-02-28T03:44:54.809Z,4.15
2023-02-28T03:47:44.861Z,5.97
2023-02-28T03:50:33.149Z,4.82
2023-02-28T03:53:26.579Z,4.28
2023-02-28T03:56:19.384Z,4.82
2023-02-28T03:59:06.099Z,3.97
2023-02-28T04:01:44.833Z,5.10
2023-02-28T04:04:18.072Z,4.65
2023-02-28T04:06:52.481Z,4.78
2023-02-28T04:09:24.634Z,4.57
2023-02-28T04:11:59.627Z,7.63
2023-02-28T04:14:31.519Z,4.95
2023-02-28T04:17:03.396Z,5.25
2023-02-28T04:19:35.298Z,4.03
2023-02-28T04:22:08.513Z,3.97
2023-02-28T04:24:42.516Z,6.40
2023-02-28T04:27:16.808Z,4.20
2023-02-28T04:29:48.687Z,5.10
2023-02-28T04:32:20.780Z,5.20
2023-02-28T04:34:52.846Z,5.57
2023-02-28T04:37:28.850Z,4.30
2023-02-28T04:40:00.697Z,5.03
2023-02-28T04:42:36.552Z,5.13
2023-02-28T04:45:11.244Z,5.78
2023-02-28T04:47:43.101Z,6.57
2023-02-28T04:50:15.086Z,4.93
2023-02-28T04:52:46.982Z,5.13
2023-02-28T04:55:18.838Z,5.65
2023-02-28T04:57:50.873Z,5.88
2023-02-28T05:00:22.822Z,4.57
2023-02-28T05:02:54.762Z,4.38
2023-02-28T05:05:26.621Z,5.55
2023-02-28T05:07:58.564Z,5.70
2023-02-28T05:10:30.797Z,5.57
2023-02-28T05:13:02.677Z,6.03
2023-02-28T05:15:35.734Z,6.85
2023-02-28T05:18:09.579Z,6.35
2023-02-28T05:20:41.377Z,5.05
2023-02-28T05:23:14.767Z,5.72
2023-02-28T05:25:46.625Z,4.40
2023-02-28T05:28:18.501Z,7.20
2023-02-28T05:30:50.625Z,5.68
2023-02-28T05:33:22.597Z,4.68
2023-02-28T05:35:54.499Z,5.32
2023-02-28T05:38:26.413Z,4.70
2023-02-28T05:40:58.371Z,4.85
2023-02-28T05:43:30.265Z,5.18
2023-02-28T05:46:10.828Z,5.57
2023-02-28T05:48:46.506Z,6.68
2023-02-28T05:51:18.770Z,6.90
2023-02-28T05:53:50.696Z,7.07
2023-02-28T05:56:22.596Z,6.18
2023-02-28T05:58:54.567Z,7.60
2023-02-28T06:01:32.263Z,5.78
2023-02-28T06:04:05.685Z,8.43
2023-02-28T06:06:38.109Z,7.22
2023-02-28T06:09:09.909Z,10.38
2023-02-28T06:11:42.527Z,8.30
2023-02-28T06:14:17.765Z,13.43
2023-02-28T06:16:49.864Z,9.55
2023-02-28T06:19:23.420Z,5.45
2023-02-28T06:21:57.888Z,6.40
2023-02-28T06:24:29.968Z,8.48
2023-02-28T06:27:05.965Z,9.68
2023-02-28T06:29:40.881Z,6.03
2023-02-28T06:32:12.726Z,7.70
2023-02-28T06:34:44.720Z,9.60
2023-02-28T06:37:16.570Z,9.32
2023-02-28T06:39:48.478Z,5.50
2023-02-28T06:42:21.029Z,11.07
2023-02-28T06:44:52.897Z,8.52
2023-02-28T06:47:25.190Z,9.73
2023-02-28T06:49:57.033Z,9.95
2023-02-28T06:52:28.898Z,7.15
2023-02-28T06:55:01.220Z,6.60
2023-02-28T06:57:34.606Z,5.95
2023-02-28T07:00:09.731Z,6.45
2023-02-28T07:02:41.661Z,6.13
2023-02-28T07:05:13.596Z,7.13
2023-02-28T07:07:47.903Z,7.25
2023-02-28T07:10:20.437Z,5.68
2023-02-28T07:12:52.513Z,6.90
2023-02-28T07:15:24.358Z,5.13
2023-02-28T07:17:57.376Z,5.57
2023-02-28T07:20:29.443Z,5.45
2023-02-28T07:23:01.489Z,6.38
2023-02-28T07:25:33.341Z,5.57
2023-02-28T07:28:05.506Z,5.93
2023-02-28T07:30:37.518Z,6.13
2023-02-28T07:33:11.168Z,5.45
2023-02-28T07:35:43.407Z,5.95
2023-02-28T07:38:16.112Z,5.40
2023-02-28T07:40:47.929Z,5.57
2023-02-28T07:43:19.887Z,5.72
2023-02-28T07:45:51.719Z,6.07
2023-02-28T07:48:23.606Z,7.88
2023-02-28T07:50:56.932Z,5.75
2023-02-28T07:53:29.706Z,5.72
2023-02-28T08:20:11.325Z,5.57
2023-02-28T08:22:45.833Z,6.80
2023-02-28T08:25:18.188Z,5.07
2023-02-28T08:27:53.154Z,5.20
2023-02-28T08:30:25.181Z,5.28
2023-02-28T08:32:57.273Z,6.35
2023-02-28T08:35:29.248Z,6.38
2023-02-28T08:38:01.191Z,5.20
2023-02-28T08:40:33.158Z,5.38
2023-02-28T08:43:05.278Z,6.53
2023-02-28T08:45:37.488Z,6.45
2023-02-28T08:48:09.800Z,8.23
2023-02-28T08:50:41.679Z,7.18
2023-02-28T08:53:13.585Z,4.80
2023-02-28T08:55:46.125Z,5.95
2023-02-28T08:58:18.123Z,6.43
2023-02-28T09:00:50.126Z,6.05
2023-02-28T09:03:24.318Z,6.15
2023-02-28T09:06:01.656Z,5.20
2023-02-28T09:08:33.598Z,5.10
2023-02-28T09:11:05.931Z,8.45
2023-02-28T09:13:38.234Z,8.85
2023-02-28T09:16:13.922Z,5.60
2023-02-28T09:18:45.839Z,5.60
2023-02-28T09:21:19.806Z,5.97
2023-02-28T09:23:52.386Z,6.05
2023-02-28T09:26:30.192Z,5.38
2023-02-28T09:29:07.716Z,7.40
2023-02-28T09:31:39.737Z,5.47
2023-02-28T09:34:11.907Z,4.93
2023-02-28T09:36:46.180Z,5.00
2023-02-28T09:39:18.419Z,8.77
2023-02-28T09:41:54.753Z,6.00
2023-02-28T09:44:42.847Z,6.07
2023-02-28T09:47:25.186Z,5.35
2023-02-28T09:49:59.336Z,5.47
2023-02-28T09:52:33.389Z,4.80
2023-02-28T09:55:35.276Z,6.47
2023-02-28T09:58:24.228Z,6.63
2023-02-28T10:01:15.693Z,6.03
2023-02-28T10:04:04.674Z,7.65
2023-02-28T10:06:46.452Z,6.55
2023-02-28T10:09:25.195Z,6.00
2023-02-28T10:12:03.053Z,5.45
2023-02-28T10:14:36.225Z,7.03
2023-02-28T10:17:21.051Z,4.85
2023-02-28T10:19:52.881Z,6.18
2023-02-28T10:22:54.012Z,6.93
2023-02-28T10:25:29.071Z,4.65
2023-02-28T10:28:08.953Z,6.25
2023-02-28T10:30:46.340Z,4.57
2023-02-28T10:33:35.989Z,5.40
2023-02-28T10:36:14.600Z,5.43
2023-02-28T10:38:47.837Z,6.00
2023-02-28T10:41:35.508Z,6.88
2023-02-28T10:44:23.754Z,8.38
2023-02-28T10:46:56.563Z,6.90
2023-02-28T10:49:30.404Z,6.03
2023-02-28T10:52:02.490Z,6.88
2023-02-28T10:54:39.163Z,8.18
2023-02-28T10:57:29.528Z,6.43
2023-02-28T11:00:22.939Z,6.53
2023-02-28T11:02:55.470Z,9.70
2023-02-28T11:05:29.515Z,6.35
2023-02-28T11:08:07.166Z,7.65
2023-02-28T11:10:39.850Z,7.28
2023-02-28T11:13:20.515Z,6.70
2023-02-28T11:15:58.174Z,6.75
2023-02-28T11:18:52.974Z,7.07
2023-02-28T11:21:29.881Z,7.80
2023-02-28T11:24:24.493Z,6.00
2023-02-28T11:26:57.261Z,7.18
2023-02-28T11:29:35.805Z,5.85
2023-02-28T11:32:23.330Z,6.13
2023-02-28T11:35:40.565Z,5.80
2023-02-28T11:38:14.132Z,7.43
2023-02-28T11:41:00.958Z,5.60
2023-02-28T11:43:46.252Z,6.10
2023-02-28T11:46:39.314Z,5.70
2023-02-28T11:49:36.896Z,6.80
2023-02-28T11:52:39.733Z,5.85
2023-02-28T11:55:20.318Z,5.97
2023-02-28T11:58:27.520Z,7.87
2023-02-28T12:01:05.914Z,7.70
2023-02-28T12:03:43.489Z,6.25
2023-02-28T12:06:49.481Z,6.75
2023-02-28T12:09:59.696Z,6.57
2023-02-28T12:12:50.650Z,6.28
2023-02-28T12:15:41.467Z,8.18
2023-02-28T12:18:13.329Z,8.38
2023-02-28T12:20:55.833Z,6.15
2023-02-28T12:23:36.823Z,8.30
2023-02-28T12:26:29.612Z,7.78
2023-02-28T12:29:11.566Z,8.70
2023-02-28T12:31:50.744Z,6.22
2023-02-28T12:34:50.682Z,7.20
2023-02-28T12:37:28.090Z,11.15
2023-02-28T12:40:10.868Z,7.60
2023-02-28T12:42:58.087Z,7.57
2023-02-28T12:45:45.544Z,7.20
2023-02-28T12:48:26.870Z,8.80
2023-02-28T12:51:03.229Z,8.38
2023-02-28T12:54:07.564Z,6.93
2023-02-28T12:57:01.261Z,7.57
2023-02-28T12:59:40.470Z,7.50
2023-02-28T13:02:51.820Z,9.27
2023-02-28T13:05:54.821Z,8.00
2023-02-28T13:09:02.742Z,9.00
2023-02-28T13:11:42.531Z,7.85
2023-02-28T13:14:56.555Z,8.07
2023-02-28T13:17:35.064Z,11.82
2023-02-28T13:20:24.550Z,9.88
2023-02-28T13:22:58.416Z,7.25
2023-02-28T13:25:42.390Z,9.70
2023-02-28T13:28:52.028Z,10.43
2023-02-28T13:31:25.672Z,8.55
2023-02-28T13:34:00.563Z,9.82
2023-02-28T13:36:34.258Z,9.88
2023-02-28T13:39:37.815Z,9.93
2023-02-28T13:42:37.073Z,9.13
2023-02-28T13:45:08.988Z,7.63
2023-02-28T13:47:52.961Z,9.77
2023-02-28T13:50:27.812Z,7.53
2023-02-28T13:53:15.440Z,8.45
2023-02-28T13:56:15.922Z,9.05
2023-02-28T13:59:16.119Z,9.10
2023-02-28T14:02:14.326Z,11.43
2023-02-28T14:05:02.980Z,11.07
2023-02-28T14:07:54.723Z,8.38
2023-02-28T14:10:33.813Z,8.50
2023-02-28T14:13:51.181Z,10.55
2023-02-28T14:16:27.790Z,8.48
2023-02-28T14:19:28.302Z,12.38
2023-02-28T14:22:28.915Z,8.05
2023-02-28T14:25:26.387Z,12.65
2023-02-28T14:28:34.151Z,9.85
2023-02-28T14:31:14.720Z,12.48
2023-02-28T14:33:52.667Z,8.97
2023-02-28T14:36:40.470Z,9.02
2023-02-28T14:39:22.915Z,8.02
2023-02-28T14:41:56.022Z,7.95
2023-02-28T14:44:33.259Z,11.48
2023-02-28T14:47:07.442Z,10.25
2023-02-28T14:49:46.618Z,8.75
2023-02-28T14:52:23.044Z,7.65
2023-02-28T14:54:58.326Z,10.23
2023-02-28T14:57:33.188Z,8.25
2023-02-28T15:00:30.009Z,8.88
2023-02-28T15:03:13.171Z,7.88
2023-02-28T15:05:56.776Z,10.77
2023-02-28T15:08:32.784Z,9.10
2023-02-28T15:11:13.800Z,10.70
2023-02-28T15:13:51.871Z,10.80
2023-02-28T15:16:38.409Z,8.48
2023-02-28T15:19:25.252Z,10.27
2023-02-28T15:22:08.085Z,9.30
2023-02-28T15:24:53.119Z,9.48
2023-02-28T15:27:33.138Z,10.52
2023-02-28T15:30:16.015Z,9.43
2023-02-28T15:33:09.582Z,9.73
2023-02-28T15:35:41.553Z,10.07
2023-02-28T15:41:30.611Z,8.85
2023-02-28T15:44:17.169Z,11.73
2023-02-28T15:47:00.241Z,10.82
2023-02-28T15:49:50.282Z,11.13
2023-02-28T15:52:37.730Z,10.13
2023-02-28T15:55:19.407Z,12.05
2023-02-28T15:57:54.888Z,9.45
2023-02-28T16:00:28.900Z,8.80
2023-02-28T16:03:00.998Z,8.70
2023-02-28T16:05:33.268Z,9.45
2023-02-28T16:08:16.065Z,11.40
2023-02-28T16:10:48.027Z,17.80
2023-02-28T16:13:19.846Z,9.60
2023-02-28T16:15:52.435Z,12.82
2023-02-28T16:18:24.346Z,9.13
2023-02-28T16:20:56.546Z,12.35
2023-02-28T16:23:28.557Z,11.57
2023-02-28T16:26:00.677Z,12.20
2023-02-28T16:28:35.833Z,11.07
2023-02-28T16:31:08.658Z,9.95
2023-02-28T16:33:40.625Z,11.10
2023-02-28T16:36:21.991Z,12.52
2023-02-28T16:38:55.425Z,14.40
2023-02-28T16:41:28.883Z,13.82
2023-02-28T16:44:01.521Z,14.05
2023-02-28T16:46:35.874Z,13.88
2023-02-28T16:49:12.840Z,12.10
2023-02-28T16:51:44.690Z,11.82
2023-02-28T16:54:16.602Z,10.48
2023-02-28T16:56:49.824Z,10.90
2023-02-28T16:59:27.052Z,13.60
2023-02-28T17:01:59.717Z,12.65
2023-02-28T17:04:31.770Z,14.85
2023-02-28T17:07:03.846Z,10.52
2023-02-28T17:09:43.085Z,9.63
2023-02-28T17:12:15.905Z,12.30
2023-02-28T17:14:47.795Z,14.05
2023-02-28T17:17:22.935Z,11.70
2023-02-28T17:19:54.830Z,11.70
2023-02-28T17:22:26.997Z,16.05
2023-02-28T17:24:59.720Z,18.25
2023-02-28T17:27:31.613Z,20.50
2023-02-28T17:30:12.575Z,18.88
2023-02-28T17:32:44.874Z,47.33
2023-02-28T17:35:16.979Z,36.67
2023-02-28T17:37:49.037Z,30.20
2023-02-28T17:40:23.615Z,21.20
2023-02-28T17:42:57.723Z,16.05
2023-02-28T17:45:29.702Z,14.27
2023-02-28T17:48:02.182Z,13.07
2023-02-28T17:50:34.345Z,15.10
2023-02-28T17:53:06.358Z,14.25
2023-02-28T17:55:38.309Z,16.73
2023-02-28T17:58:15.061Z,15.40
2023-02-28T18:00:48.742Z,17.60
2023-02-28T18:03:21.497Z,21.73
2023-02-28T18:05:53.454Z,22.40
2023-02-28T18:08:25.555Z,23.58
2023-02-28T18:10:57.450Z,27.42
2023-02-28T18:13:32.583Z,33.75
2023-02-28T18:16:05.117Z,25.60
2023-02-28T18:18:38.527Z,31.08
2023-02-28T18:21:12.189Z,29.75
2023-02-28T18:23:50.987Z,28.38
2023-02-28T18:26:24.195Z,32.40
2023-02-28T18:28:57.595Z,28.88
2023-02-28T18:31:30.502Z,35.25
2023-02-28T18:34:02.468Z,34.35
2023-02-28T18:36:34.354Z,28.98
2023-02-28T18:39:06.220Z,24.73
2023-02-28T18:41:38.824Z,26.38
2023-02-28T18:44:20.997Z,32.00
2023-02-28T18:49:26.519Z,54.90
2023-02-28T18:51:58.653Z,36.63
2023-02-28T18:54:30.641Z,46.40
2023-02-28T18:57:02.446Z,38.70
2023-02-28T18:59:34.361Z,48.10
2023-02-28T19:02:06.740Z,34.28
2023-02-28T19:04:41.832Z,32.30
2023-02-28T19:07:15.279Z,36.30
2023-02-28T19:09:48.458Z,40.92
2023-02-28T19:12:20.689Z,68.60
2023-02-28T19:14:52.629Z,28.67
2023-02-28T19:17:24.434Z,28.35
2023-02-28T19:19:56.304Z,28.15
2023-02-28T19:22:28.185Z,31.98
2023-02-28T19:25:00.109Z,30.40
2023-02-28T19:27:32.090Z,29.17
2023-02-28T19:30:06.427Z,25.80
2023-02-28T19:32:38.418Z,26.67
2023-02-28T19:35:10.318Z,24.67
2023-02-28T19:37:42.591Z,26.63
2023-02-28T19:40:17.342Z,29.05
2023-02-28T19:42:50.345Z,33.00
2023-02-28T19:45:24.418Z,33.60
2023-02-28T19:47:56.762Z,25.13
2023-02-28T19:50:28.783Z,25.77
2023-02-28T19:53:02.524Z,34.10
2023-02-28T19:55:34.562Z,31.38
2023-02-28T19:58:09.084Z,28.30
2023-02-28T20:00:41.562Z,27.67
2023-02-28T20:03:13.595Z,34.22
2023-02-28T20:05:46.567Z,31.58
2023-02-28T20:08:18.913Z,28.85
2023-02-28T20:10:50.881Z,28.73
2023-02-28T20:13:27.986Z,29.27
2023-02-28T20:16:06.259Z,26.55
2023-02-28T20:18:40.155Z,31.48
2023-02-28T20:21:17.843Z,25.45
2023-02-28T20:23:49.873Z,26.63
2023-02-28T20:26:25.058Z,29.35
2023-02-28T20:28:57.441Z,26.60
2023-02-28T20:31:31.028Z,30.83
2023-02-28T20:34:03.694Z,27.35
2023-02-28T20:36:35.819Z,25.92
2023-02-28T20:39:08.302Z,28.08
2023-02-28T20:41:41.170Z,33.70
2023-02-28T20:44:14.438Z,30.23
2023-02-28T20:46:46.850Z,28.52
2023-02-28T20:49:19.143Z,44.92
2023-02-28T20:51:51.401Z,62.05
2023-02-28T20:54:25.081Z,47.92
2023-02-28T20:56:57.646Z,26.40
2023-02-28T20:59:29.669Z,26.08
2023-02-28T21:02:01.806Z,23.98
2023-02-28T21:04:34.111Z,26.25
2023-02-28T21:07:06.094Z,24.45
2023-02-28T21:09:39.334Z,23.23
2023-02-28T21:12:11.301Z,22.92
2023-02-28T21:14:44.830Z,23.92
2023-02-28T21:17:16.870Z,23.55
2023-02-28T21:19:49.486Z,23.33
2023-02-28T21:22:21.856Z,23.30
2023-02-28T21:24:53.803Z,21.55
2023-02-28T21:27:26.867Z,23.75
2023-02-28T21:29:59.018Z,25.20
2023-02-28T21:32:31.006Z,76.75
2023-02-28T21:35:04.070Z,53.60
2023-02-28T21:37:38.687Z,25.65
2023-02-28T21:40:11.394Z,20.83
2023-02-28T21:42:43.297Z,24.67
2023-02-28T21:45:15.690Z,22.55
2023-02-28T21:47:47.656Z,22.33
2023-02-28T21:50:19.619Z,23.35
2023-02-28T21:52:51.755Z,25.27
2023-02-28T21:55:23.638Z,22.33
2023-02-28T21:57:55.593Z,21.83
2023-02-28T22:00:27.877Z,22.58
2023-02-28T22:02:59.956Z,21.48
2023-02-28T22:05:32.910Z,21.58
2023-02-28T22:08:04.792Z,21.63
2023-02-28T22:10:36.833Z,21.65
2023-02-28T22:13:10.103Z,21.70
2023-02-28T22:15:43.417Z,20.65
2023-02-28T22:18:15.725Z,23.33
2023-02-28T22:20:55.282Z,23.63
2023-02-28T22:23:29.332Z,33.58
2023-02-28T22:26:03.135Z,23.20
2023-02-28T22:28:36.505Z,27.58
2023-02-28T22:31:14.855Z,22.73
2023-02-28T22:33:48.767Z,24.70
2023-02-28T22:36:23.179Z,21.20
2023-02-28T22:38:55.666Z,22.92
2023-02-28T22:41:28.683Z,21.95
2023-02-28T22:44:02.863Z,22.08
2023-02-28T22:46:36.056Z,21.60
2023-02-28T22:49:09.010Z,24.88
2023-02-28T22:51:41.510Z,22.50
2023-02-28T22:54:13.704Z,22.15
2023-02-28T22:56:45.874Z,21.23
2023-02-28T22:59:18.634Z,24.17
2023-02-28T23:01:53.757Z,25.40
2023-02-28T23:04:27.145Z,27.30
2023-02-28T23:06:59.447Z,24.95
2023-02-28T23:09:31.597Z,23.13
2023-02-28T23:12:03.726Z,24.02
2023-02-28T23:14:35.650Z,24.05
2023-02-28T23:17:07.716Z,20.95
2023-02-28T23:19:39.715Z,24.35
2023-02-28T23:22:11.608Z,21.25
2023-02-28T23:24:43.633Z,21.17
2023-02-28T23:27:15.729Z,19.92
2023-02-28T23:29:47.824Z,26.27
2023-02-28T23:32:19.760Z,19.75
2023-02-28T23:34:51.747Z,24.48
2023-02-28T23:37:23.740Z,21.58
2023-02-28T23:39:56.023Z,22.25
2023-02-28T23:42:29.590Z,23.60
2023-02-28T23:45:01.510Z,20.42
2023-02-28T23:47:33.465Z,21.95
2023-02-28T23:50:05.729Z,23.23
2023-02-28T23:52:37.675Z,24.05
2023-02-28T23:55:10.094Z,24.83
2023-02-28T23:57:42.128Z,24.95
